createdAt,value
2022-08-02T00:26:39.218Z,19.30
2022-08-02T00:29:32.057Z,19.20
2022-08-02T00:32:11.823Z,19.20
2022-08-02T00:35:05.520Z,19.20
2022-08-02T00:37:40.045Z,19.10
2022-08-02T00:40:19.029Z,19.00
2022-08-02T00:43:01.673Z,19.00
2022-08-02T00:46:03.552Z,19.00
2022-08-02T00:48:40.741Z,19.00
2022-08-02T00:51:23.692Z,18.90
2022-08-02T00:54:10.324Z,18.90
2022-08-02T00:56:53.866Z,18.90
2022-08-02T00:59:56.421Z,18.90
2022-08-02T01:02:45.308Z,18.90
2022-08-02T01:05:28.020Z,18.90
2022-08-02T01:08:29.376Z,18.90
2022-08-02T01:11:31.431Z,18.90
2022-08-02T01:14:17.587Z,18.90
2022-08-02T01:17:14.685Z,18.90
2022-08-02T01:20:25.876Z,18.90
2022-08-02T01:23:37.489Z,18.90
2022-08-02T01:26:51.579Z,18.90
2022-08-02T01:32:57.333Z,18.80
2022-08-02T01:35:50.705Z,18.80
2022-08-02T01:38:38.002Z,18.80
2022-08-02T01:41:34.495Z,18.80
2022-08-02T01:44:12.038Z,18.80
2022-08-02T01:46:47.316Z,18.70
2022-08-02T01:49:25.635Z,18.60
2022-08-02T01:52:17.420Z,18.60
2022-08-02T01:55:18.556Z,18.60
2022-08-02T02:01:15.092Z,18.40
2022-08-02T02:04:02.374Z,18.40
2022-08-02T02:06:34.430Z,18.40
2022-08-02T02:09:06.024Z,18.40
2022-08-02T02:12:06.166Z,18.30
2022-08-02T02:14:42.652Z,18.20
2022-08-02T02:17:50.769Z,18.20
2022-08-02T02:20:34.807Z,18.20
2022-08-02T02:23:13.407Z,18.10
2022-08-02T03:55:21.750Z,17.00
2022-08-02T03:58:17.400Z,17.00
2022-08-02T05:58:35.408Z,17.70
2022-08-02T06:31:09.598Z,18.90
2022-08-02T06:33:38.057Z,19.20
2022-08-02T06:36:14.687Z,19.40
2022-08-02T06:40:01.534Z,19.60
2022-08-02T06:43:02.537Z,19.80
2022-08-02T06:45:32.177Z,20.00
2022-08-02T06:52:27.391Z,20.40
2022-08-02T06:55:04.456Z,20.70
2022-08-02T06:57:57.965Z,20.90
2022-08-02T07:00:35.594Z,21.00
2022-08-02T10:45:04.761Z,29.10
2022-08-02T15:07:55.768Z,29.30
2022-08-02T15:10:24.071Z,29.40
2022-08-02T15:12:51.118Z,29.30
2022-08-02T15:15:18.696Z,29.30
2022-08-02T15:20:53.475Z,29.30
2022-08-02T15:23:34.823Z,29.30
2022-08-02T15:26:06.089Z,29.20
2022-08-02T15:28:34.183Z,29.20
2022-08-02T15:31:04.416Z,29.10
2022-08-02T15:33:32.228Z,29.10
2022-08-02T15:35:59.650Z,29.10
2022-08-02T15:38:26.453Z,29.10
2022-08-02T15:40:53.612Z,29.00
2022-08-02T15:43:22.389Z,29.00
2022-08-02T15:46:09.993Z,29.00
2022-08-02T15:49:00.982Z,29.10
2022-08-02T15:51:30.722Z,29.10
2022-08-02T15:53:58.932Z,29.10
2022-08-02T15:56:26.535Z,29.10
2022-08-02T15:58:57.063Z,29.10
2022-08-02T16:01:37.127Z,29.10
2022-08-02T16:04:07.387Z,29.10
2022-08-02T16:06:35.890Z,29.20
2022-08-02T16:09:03.418Z,29.20
2022-08-02T16:11:31.765Z,29.20
2022-08-02T16:13:59.476Z,29.10
2022-08-02T16:21:23.453Z,29.10
2022-08-02T16:23:59.066Z,29.00
2022-08-02T16:26:34.419Z,29.00
2022-08-02T16:29:02.948Z,29.00
2022-08-02T16:31:32.034Z,29.00
2022-08-02T16:34:00.625Z,29.00
2022-08-02T16:36:30.217Z,29.00
2022-08-02T16:38:57.828Z,29.00
2022-08-02T16:41:50.966Z,29.00
2022-08-02T16:44:29.760Z,29.00
2022-08-02T16:47:12.201Z,29.00
2022-08-02T16:50:06.961Z,29.00
2022-08-02T16:52:33.129Z,29.00
2022-08-02T16:55:01.692Z,29.00
2022-08-02T16:57:42.928Z,29.00
2022-08-02T17:00:15.614Z,28.90
2022-08-02T17:02:47.000Z,28.90
2022-08-02T17:05:17.558Z,28.90
2022-08-02T17:08:08.203Z,28.90
2022-08-02T17:10:37.571Z,28.80
2022-08-02T17:13:11.580Z,28.80
2022-08-02T17:16:16.703Z,28.80
2022-08-02T17:18:37.444Z,28.80
2022-08-02T17:21:11.114Z,28.80
2022-08-02T17:24:02.779Z,28.80
2022-08-02T17:26:26.378Z,28.70
2022-08-02T17:29:14.646Z,28.70
2022-08-02T17:31:46.487Z,28.70
2022-08-02T17:34:32.331Z,28.60
2022-08-02T17:37:00.936Z,28.60
2022-08-02T17:39:34.319Z,28.50
2022-08-02T17:42:10.886Z,28.40
2022-08-02T17:44:42.781Z,28.40
2022-08-02T17:47:17.825Z,28.30
2022-08-02T17:49:48.015Z,28.20
2022-08-02T17:52:52.382Z,28.10
2022-08-02T17:55:06.286Z,28.00
2022-08-02T17:57:55.279Z,27.80
2022-08-02T18:00:22.562Z,27.80
2022-08-02T18:02:55.242Z,27.70
2022-08-02T18:05:40.165Z,27.60
2022-08-02T18:08:17.313Z,27.40
2022-08-02T18:10:48.576Z,27.30
2022-08-02T18:13:15.664Z,27.20
2022-08-02T18:15:45.492Z,27.10
2022-08-02T18:18:14.541Z,27.10
2022-08-02T18:20:42.491Z,27.00
2022-08-02T18:23:13.763Z,27.00
2022-08-02T18:25:46.029Z,26.90
2022-08-02T18:28:17.280Z,26.80
2022-08-02T18:30:45.903Z,26.60
2022-08-02T18:33:55.551Z,26.50
2022-08-02T18:36:00.032Z,26.40
2022-08-02T18:38:29.752Z,26.30
2022-08-02T18:40:59.354Z,26.10
2022-08-02T18:43:29.588Z,26.00
2022-08-02T18:46:06.539Z,25.90
2022-08-02T18:48:46.750Z,25.70
2022-08-02T18:51:15.835Z,25.50
2022-08-02T18:53:44.413Z,25.40
2022-08-02T18:56:20.057Z,25.20
2022-08-02T18:58:56.701Z,25.10
2022-08-02T19:01:34.002Z,25.00
2022-08-02T19:04:04.944Z,24.90
2022-08-02T19:06:32.501Z,24.70
2022-08-02T19:09:05.434Z,24.70
2022-08-02T19:11:41.039Z,24.50
2022-08-02T19:14:09.329Z,24.40
2022-08-02T19:16:38.133Z,24.30
2022-08-02T19:19:10.544Z,24.10
2022-08-02T19:22:26.685Z,24.10
2022-08-02T19:24:37.855Z,23.90
2022-08-02T19:27:14.067Z,23.80
2022-08-02T19:29:48.816Z,23.70
2022-08-02T19:32:39.870Z,23.60
2022-08-02T19:35:19.748Z,23.50
2022-08-02T19:38:09.127Z,23.40
2022-08-02T19:40:38.837Z,23.20
2022-08-02T19:44:25.693Z,23.10
2022-08-02T19:45:57.481Z,23.00
2022-08-02T19:48:27.287Z,22.90
2022-08-02T19:51:00.707Z,22.80
2022-08-02T19:53:48.251Z,22.70
2022-08-02T19:56:19.512Z,22.60
2022-08-02T19:58:54.421Z,22.50
2022-08-02T20:01:37.211Z,22.40
2022-08-02T20:04:13.660Z,22.30
2022-08-02T20:06:47.579Z,22.20
2022-08-02T20:09:21.216Z,22.00
2022-08-02T20:11:54.201Z,21.90
2022-08-02T20:14:27.595Z,21.80
2022-08-02T20:16:58.302Z,21.70
2022-08-02T20:19:29.151Z,21.70
2022-08-02T20:21:59.657Z,21.50
2022-08-02T20:24:29.329Z,21.50
2022-08-02T20:26:59.295Z,21.40
2022-08-02T20:35:09.906Z,21.20
2022-08-02T20:38:01.284Z,21.10
2022-08-02T20:40:26.161Z,21.00
2022-08-02T20:42:54.782Z,20.90
2022-08-02T20:45:24.383Z,20.90
2022-08-02T20:47:54.981Z,20.90
2022-08-02T20:50:44.665Z,20.80
2022-08-02T20:53:23.992Z,20.70
2022-08-02T20:55:55.945Z,20.60
2022-08-02T20:58:27.299Z,20.50
2022-08-02T21:00:59.694Z,20.50
2022-08-02T21:03:39.516Z,20.40
2022-08-02T21:06:11.462Z,20.30
2022-08-02T21:08:46.055Z,20.20
2022-08-02T21:11:14.619Z,20.20
2022-08-02T21:16:29.478Z,20.00
2022-08-02T21:18:59.711Z,19.90
2022-08-02T21:21:27.425Z,19.90
2022-08-02T21:23:55.265Z,19.90
2022-08-02T21:26:25.889Z,19.80
2022-08-02T21:28:56.820Z,19.80
2022-08-02T21:31:30.049Z,19.70
2022-08-02T21:34:02.090Z,19.60
2022-08-02T21:36:33.861Z,19.60
2022-08-02T21:39:05.922Z,19.50
2022-08-02T21:41:46.281Z,19.50
2022-08-02T21:44:17.288Z,19.40
2022-08-02T21:46:51.204Z,19.30
2022-08-02T21:49:21.017Z,19.20
2022-08-02T21:52:08.636Z,19.20
2022-08-02T21:54:39.967Z,19.10
2022-08-02T21:57:15.116Z,19.10
2022-08-02T21:59:47.295Z,19.00
2022-08-02T22:02:16.090Z,18.90
2022-08-02T22:04:47.803Z,18.80
2022-08-02T22:07:23.964Z,18.80
2022-08-02T22:09:55.719Z,18.70
2022-08-02T22:12:26.369Z,18.60
2022-08-02T22:14:56.936Z,18.60
2022-08-02T22:17:52.511Z,18.60
2022-08-02T22:20:18.368Z,18.50
2022-08-02T22:22:50.527Z,18.40
2022-08-02T22:25:26.803Z,18.40
2022-08-02T22:28:35.030Z,18.30
2022-08-02T22:30:57.469Z,18.30
2022-08-02T22:34:00.120Z,18.30
2022-08-02T22:36:32.156Z,18.20
2022-08-02T22:39:01.901Z,18.20
2022-08-02T22:42:01.507Z,18.10
2022-08-02T22:44:18.735Z,18.00
2022-08-02T22:46:50.165Z,18.00
2022-08-02T22:49:36.947Z,17.90
2022-08-02T22:52:07.931Z,17.90
2022-08-02T22:54:35.522Z,17.80
2022-08-02T22:57:02.312Z,17.70
2022-08-02T22:58:55.568Z,21.30
2022-08-02T22:58:55.695Z,21.30
2022-08-02T22:59:11.342Z,20.10
2022-08-02T22:59:39.319Z,17.70
2022-08-02T23:02:09.437Z,17.70
2022-08-02T23:04:38.961Z,17.70
2022-08-02T23:07:06.550Z,17.70
2022-08-02T23:09:35.135Z,17.70
2022-08-02T23:12:02.723Z,17.60
2022-08-02T23:14:30.317Z,17.60
2022-08-02T23:17:15.991Z,17.50
2022-08-02T23:19:54.624Z,17.50
2022-08-02T23:22:29.767Z,17.40
2022-08-02T23:25:01.862Z,17.40
2022-08-02T23:27:30.462Z,17.30
2022-08-02T23:29:59.048Z,17.30
2022-08-02T23:32:27.070Z,17.30
2022-08-02T23:34:56.239Z,17.20
2022-08-02T23:37:24.876Z,17.10
2022-08-02T23:39:52.441Z,17.00
2022-08-02T23:42:20.020Z,17.00
2022-08-02T23:44:47.609Z,16.90
2022-08-02T23:47:17.219Z,16.90
2022-08-02T23:49:44.948Z,16.90
2022-08-02T23:52:13.545Z,16.80
2022-08-02T23:54:40.991Z,16.80
2022-08-02T23:57:20.829Z,16.80
2022-08-02T23:59:51.348Z,16.80
